Terminal Aerodrome Forecast
Issued by NWS

Home | Current Version | Previous Version | Graphics & Text | Print | Product List | Glossary On
Versions: 1 2 3 4 5 6 7 8 9 10 11 12 13
000
FTUS43 KTOP 301100
TAFMHK
TAF
KMHK 301122Z 3012/3112 20003KT P6SM SKC
     FM301600 22014G22KT P6SM SCT150
     FM310100 21004KT P6SM SKC=

USA.gov is the U.S. government's official web portal to all federal, state and local government web resources and services.